Terminal Aerodrome Forecast
Issued by NWS

Home | Current Version | Previous Version | Text Only | Print | Product List | Glossary On
Versions: 1 2 3 4 5 6 7 8 9 10 11 12 13 14 15 16 17 18 19
744
FTUS43 KGRR 230014 AAA
TAFBTL
TAF AMD
KBTL 230014Z 2300/2324 27009KT P6SM FEW017
     FM230100 30007KT P6SM BKN050
     FM230700 35004KT 5SM BR BKN016
     FM231200 VRB03KT 4SM BR VCSH BKN035
     FM231600 25008KT P6SM BKN025
     FM232000 29012G22KT P6SM FEW035=

USA.gov is the U.S. government's official web portal to all federal, state and local government web resources and services.